X  Schlie├čen METAR Luftfahrt Wetterdaten     EDJA Memmingen Allgau Airport
Temperatur
10°C Temperatur
5°C Taupunkt
71% Feuchtigkeit



Wind
10 M/S
22 MPS
35 KM/S
19 KTS



240°
WSW
Aktuelle Wetterlage

Meistens vereinzelte Wolken Meistens vereinzelte Wolken
Luftdruck 1002.92 (hPa) - 29.62 (inHg)
Sichtweite 6.2 (Meile) - 10 (Km)
Flughafen
Flughafen Code EDJA

Position : Memmingen Allgau Airport
Entfernung: 50 (Km)

Metar:
EDJA 271320Z 24019KT 9999 SCT023 10/05 Q1003

Zeit: 27-09-2022 15:20 CEST